sensor_id;sensor_type;location;lat;lon;timestamp;P1;durP1;ratioP1;P2;durP2;ratioP2
51949;SDS011;37974;53.218;6.640;2023-11-19T06:50:33;972.10;;;879.47;;
51949;SDS011;37974;53.218;6.640;2023-11-19T06:53:34;852.88;;;780.55;;
51949;SDS011;37974;53.218;6.640;2023-11-19T07:04:28;872.28;;;798.17;;
51949;SDS011;37974;53.218;6.640;2023-11-19T07:06:54;916.38;;;835.38;;
51949;SDS011;37974;53.218;6.640;2023-11-19T07:09:23;893.50;;;815.88;;
51949;SDS011;37974;53.218;6.640;2023-11-19T07:12:15;859.10;;;787.03;;
51949;SDS011;37974;53.218;6.640;2023-11-19T08:08:38;854.63;;;782.88;;
51949;SDS011;37974;53.218;6.640;2023-11-19T08:19:17;876.10;;;801.95;;
51949;SDS011;37974;53.218;6.640;2023-11-19T08:21:46;919.55;;;839.03;;
51949;SDS011;37974;53.218;6.640;2023-11-19T08:36:04;941.03;;;857.78;;
51949;SDS011;37974;53.218;6.640;2023-11-19T08:39:15;885.45;;;810.22;;
51949;SDS011;37974;53.218;6.640;2023-11-19T08:42:06;840.00;;;769.22;;
51949;SDS011;37974;53.218;6.640;2023-11-19T08:44:37;885.20;;;808.45;;
51949;SDS011;37974;53.218;6.640;2023-11-19T08:47:32;857.80;;;784.95;;
51949;SDS011;37974;53.218;6.640;2023-11-19T08:50:04;976.53;;;880.05;;
51949;SDS011;37974;53.218;6.640;2023-11-19T08:52:41;867.65;;;793.90;;
51949;SDS011;37974;53.218;6.640;2023-11-19T08:55:31;893.28;;;815.15;;
51949;SDS011;37974;53.218;6.640;2023-11-19T08:57:59;890.88;;;813.53;;
51949;SDS011;37974;53.218;6.640;2023-11-19T09:00:46;851.50;;;779.50;;
51949;SDS011;37974;53.218;6.640;2023-11-19T09:03:12;839.72;;;769.50;;
51949;SDS011;37974;53.218;6.640;2023-11-19T09:05:38;855.97;;;784.25;;
51949;SDS011;37974;53.218;6.640;2023-11-19T09:08:04;863.80;;;791.05;;
51949;SDS011;37974;53.218;6.640;2023-11-19T09:10:51;892.70;;;814.28;;
51949;SDS011;37974;53.218;6.640;2023-11-19T09:13:17;854.83;;;782.95;;
51949;SDS011;37974;53.218;6.640;2023-11-19T09:15:43;806.90;;;739.97;;
51949;SDS011;37974;53.218;6.640;2023-11-19T09:18:09;839.63;;;770.42;;
51949;SDS011;37974;53.218;6.640;2023-11-19T09:20:37;849.03;;;777.40;;
51949;SDS011;37974;53.218;6.640;2023-11-19T09:23:04;884.17;;;807.72;;
51949;SDS011;37974;53.218;6.640;2023-11-19T09:25:31;877.55;;;802.70;;
51949;SDS011;37974;53.218;6.640;2023-11-19T09:28:00;868.65;;;794.10;;
51949;SDS011;37974;53.218;6.640;2023-11-19T09:30:26;892.08;;;812.30;;
51949;SDS011;37974;53.218;6.640;2023-11-19T09:32:54;906.42;;;827.95;;
51949;SDS011;37974;53.218;6.640;2023-11-19T09:35:19;865.28;;;791.75;;
51949;SDS011;37974;53.218;6.640;2023-11-19T09:37:45;861.10;;;787.60;;
51949;SDS011;37974;53.218;6.640;2023-11-19T09:40:11;860.90;;;788.67;;
51949;SDS011;37974;53.218;6.640;2023-11-19T09:42:42;941.97;;;855.00;;
51949;SDS011;37974;53.218;6.640;2023-11-19T09:45:13;874.63;;;799.75;;
51949;SDS011;37974;53.218;6.640;2023-11-19T09:47:43;839.20;;;769.47;;
51949;SDS011;37974;53.218;6.640;2023-11-19T09:50:14;839.58;;;769.80;;
51949;SDS011;37974;53.218;6.640;2023-11-19T09:52:42;817.88;;;750.05;;
51949;SDS011;37974;53.218;6.640;2023-11-19T09:55:08;872.20;;;797.90;;
51949;SDS011;37974;53.218;6.640;2023-11-19T09:57:37;872.38;;;797.97;;
51949;SDS011;37974;53.218;6.640;2023-11-19T10:00:05;788.05;;;725.17;;
51949;SDS011;37974;53.218;6.640;2023-11-19T10:02:33;834.20;;;765.40;;
51949;SDS011;37974;53.218;6.640;2023-11-19T10:05:04;784.25;;;721.47;;
51949;SDS011;37974;53.218;6.640;2023-11-19T10:07:49;758.22;;;697.42;;
51949;SDS011;37974;53.218;6.640;2023-11-19T10:10:15;743.58;;;684.88;;
51949;SDS011;37974;53.218;6.640;2023-11-19T10:12:45;830.47;;;762.40;;
51949;SDS011;37974;53.218;6.640;2023-11-19T10:15:21;855.15;;;781.35;;
51949;SDS011;37974;53.218;6.640;2023-11-19T10:17:50;830.13;;;759.78;;
51949;SDS011;37974;53.218;6.640;2023-11-19T10:20:16;819.28;;;752.17;;
51949;SDS011;37974;53.218;6.640;2023-11-19T10:22:42;821.70;;;755.28;;
51949;SDS011;37974;53.218;6.640;2023-11-19T10:25:22;747.90;;;689.40;;
51949;SDS011;37974;53.218;6.640;2023-11-19T10:27:50;826.70;;;757.22;;
51949;SDS011;37974;53.218;6.640;2023-11-19T10:30:20;805.17;;;739.85;;
51949;SDS011;37974;53.218;6.640;2023-11-19T10:33:03;763.72;;;702.80;;
51949;SDS011;37974;53.218;6.640;2023-11-19T10:35:31;803.22;;;738.33;;
51949;SDS011;37974;53.218;6.640;2023-11-19T10:38:00;747.83;;;688.47;;
51949;SDS011;37974;53.218;6.640;2023-11-19T10:40:38;783.33;;;720.08;;
51949;SDS011;37974;53.218;6.640;2023-11-19T10:43:05;781.05;;;718.78;;
51949;SDS011;37974;53.218;6.640;2023-11-19T10:45:33;831.88;;;763.10;;
51949;SDS011;37974;53.218;6.640;2023-11-19T10:47:59;808.28;;;742.30;;
51949;SDS011;37974;53.218;6.640;2023-11-19T10:50:25;780.25;;;717.13;;
51949;SDS011;37974;53.218;6.640;2023-11-19T10:52:55;766.92;;;705.42;;
51949;SDS011;37974;53.218;6.640;2023-11-19T10:55:25;801.10;;;736.97;;
51949;SDS011;37974;53.218;6.640;2023-11-19T10:57:53;804.00;;;739.60;;
51949;SDS011;37974;53.218;6.640;2023-11-19T11:00:24;825.38;;;758.05;;
51949;SDS011;37974;53.218;6.640;2023-11-19T11:02:50;874.28;;;800.38;;
51949;SDS011;37974;53.218;6.640;2023-11-19T11:05:20;852.65;;;781.45;;
51949;SDS011;37974;53.218;6.640;2023-11-19T11:07:47;797.33;;;732.30;;
51949;SDS011;37974;53.218;6.640;2023-11-19T11:10:16;762.13;;;701.15;;
51949;SDS011;37974;53.218;6.640;2023-11-19T11:12:43;759.08;;;698.80;;
51949;SDS011;37974;53.218;6.640;2023-11-19T11:15:11;772.30;;;710.90;;
51949;SDS011;37974;53.218;6.640;2023-11-19T11:17:38;809.40;;;742.58;;
51949;SDS011;37974;53.218;6.640;2023-11-19T11:20:05;825.60;;;757.88;;
51949;SDS011;37974;53.218;6.640;2023-11-19T11:22:35;827.58;;;759.72;;
51949;SDS011;37974;53.218;6.640;2023-11-19T11:25:27;787.80;;;724.42;;
51949;SDS011;37974;53.218;6.640;2023-11-19T11:28:16;798.35;;;734.15;;
51949;SDS011;37974;53.218;6.640;2023-11-19T11:30:59;808.47;;;743.05;;
51949;SDS011;37974;53.218;6.640;2023-11-19T11:33:55;794.35;;;730.00;;
51949;SDS011;37974;53.218;6.640;2023-11-19T11:36:47;820.53;;;752.90;;
51949;SDS011;37974;53.218;6.640;2023-11-19T11:39:29;808.53;;;741.97;;
51949;SDS011;37974;53.218;6.640;2023-11-19T11:45:04;823.13;;;755.45;;
51949;SDS011;37974;53.218;6.640;2023-11-19T11:50:15;865.55;;;793.20;;
51949;SDS011;37974;53.218;6.640;2023-11-19T11:55:29;813.08;;;746.70;;
51949;SDS011;37974;53.218;6.640;2023-11-19T11:58:00;802.28;;;737.10;;
51949;SDS011;37974;53.218;6.640;2023-11-19T12:02:59;838.72;;;768.88;;
51949;SDS011;37974;53.218;6.640;2023-11-19T12:05:26;812.90;;;747.05;;
51949;SDS011;37974;53.218;6.640;2023-11-19T12:10:54;871.90;;;798.13;;
51949;SDS011;37974;53.218;6.640;2023-11-19T12:13:59;929.58;;;845.47;;
51949;SDS011;37974;53.218;6.640;2023-11-19T12:16:51;883.53;;;808.05;;
51949;SDS011;37974;53.218;6.640;2023-11-19T12:22:25;908.70;;;829.08;;
51949;SDS011;37974;53.218;6.640;2023-11-19T12:25:28;883.95;;;808.60;;
51949;SDS011;37974;53.218;6.640;2023-11-19T12:28:12;907.65;;;829.10;;
51949;SDS011;37974;53.218;6.640;2023-11-19T12:30:45;897.45;;;820.50;;
51949;SDS011;37974;53.218;6.640;2023-11-19T12:33:15;888.33;;;812.63;;
51949;SDS011;37974;53.218;6.640;2023-11-19T12:39:35;871.05;;;797.47;;
51949;SDS011;37974;53.218;6.640;2023-11-19T12:42:06;837.55;;;768.72;;
51949;SDS011;37974;53.218;6.640;2023-11-19T12:44:35;871.38;;;799.13;;
51949;SDS011;37974;53.218;6.640;2023-11-19T12:47:11;875.78;;;801.55;;
51949;SDS011;37974;53.218;6.640;2023-11-19T12:50:01;856.58;;;783.63;;
51949;SDS011;37974;53.218;6.640;2023-11-19T12:52:43;802.00;;;736.97;;
51949;SDS011;37974;53.218;6.640;2023-11-19T12:55:26;834.63;;;764.25;;
51949;SDS011;37974;53.218;6.640;2023-11-19T12:57:54;794.40;;;730.67;;
51949;SDS011;37974;53.218;6.640;2023-11-19T13:00:21;821.90;;;753.20;;
51949;SDS011;37974;53.218;6.640;2023-11-19T13:02:57;783.20;;;720.33;;
51949;SDS011;37974;53.218;6.640;2023-11-19T13:08:54;859.35;;;786.40;;
51949;SDS011;37974;53.218;6.640;2023-11-19T13:11:37;847.78;;;777.47;;
51949;SDS011;37974;53.218;6.640;2023-11-19T13:14:06;860.13;;;787.08;;
51949;SDS011;37974;53.218;6.640;2023-11-19T13:16:37;841.33;;;771.75;;
51949;SDS011;37974;53.218;6.640;2023-11-19T13:19:16;836.15;;;767.85;;
51949;SDS011;37974;53.218;6.640;2023-11-19T13:21:53;842.17;;;771.85;;
51949;SDS011;37974;53.218;6.640;2023-11-19T13:24:19;850.35;;;780.10;;
51949;SDS011;37974;53.218;6.640;2023-11-19T13:26:48;833.70;;;763.97;;
51949;SDS011;37974;53.218;6.640;2023-11-19T13:29:14;799.63;;;735.05;;
51949;SDS011;37974;53.218;6.640;2023-11-19T13:31:40;828.72;;;760.50;;
51949;SDS011;37974;53.218;6.640;2023-11-19T16:44:44;786.70;;;723.90;;
51949;SDS011;37974;53.218;6.640;2023-11-19T16:48:25;785.08;;;722.03;;
51949;SDS011;37974;53.218;6.640;2023-11-19T16:51:54;824.70;;;757.25;;
51949;SDS011;37974;53.218;6.640;2023-11-19T16:55:48;796.08;;;732.65;;
51949;SDS011;37974;53.218;6.640;2023-11-19T16:58:50;810.95;;;745.08;;
51949;SDS011;37974;53.218;6.640;2023-11-19T17:11:41;829.95;;;762.17;;
51949;SDS011;37974;53.218;6.640;2023-11-19T17:36:35;826.42;;;759.45;;
51949;SDS011;37974;53.218;6.640;2023-11-19T17:42:48;816.53;;;751.10;;
51949;SDS011;37974;53.218;6.640;2023-11-19T17:45:43;859.03;;;789.45;;
51949;SDS011;37974;53.218;6.640;2023-11-19T17:51:55;862.50;;;791.67;;
51949;SDS011;37974;53.218;6.640;2023-11-19T18:21:57;808.88;;;743.25;;
51949;SDS011;37974;53.218;6.640;2023-11-19T18:24:28;833.83;;;765.10;;
51949;SDS011;37974;53.218;6.640;2023-11-19T18:31:32;802.03;;;736.17;;
51949;SDS011;37974;53.218;6.640;2023-11-19T18:34:19;819.35;;;751.88;;
51949;SDS011;37974;53.218;6.640;2023-11-19T18:36:51;812.88;;;746.63;;
51949;SDS011;37974;53.218;6.640;2023-11-19T18:39:20;813.35;;;747.50;;
51949;SDS011;37974;53.218;6.640;2023-11-19T18:41:49;820.17;;;752.38;;
51949;SDS011;37974;53.218;6.640;2023-11-19T18:44:18;828.40;;;760.13;;
51949;SDS011;37974;53.218;6.640;2023-11-19T18:46:47;813.58;;;747.92;;
51949;SDS011;37974;53.218;6.640;2023-11-19T18:49:13;842.28;;;772.42;;
51949;SDS011;37974;53.218;6.640;2023-11-19T18:51:41;834.90;;;766.25;;
51949;SDS011;37974;53.218;6.640;2023-11-19T18:54:07;813.08;;;747.85;;
51949;SDS011;37974;53.218;6.640;2023-11-19T18:56:34;825.25;;;756.92;;
51949;SDS011;37974;53.218;6.640;2023-11-19T18:59:00;831.33;;;762.78;;
51949;SDS011;37974;53.218;6.640;2023-11-19T19:01:28;799.83;;;734.95;;
51949;SDS011;37974;53.218;6.640;2023-11-19T19:03:56;819.40;;;752.30;;
51949;SDS011;37974;53.218;6.640;2023-11-19T19:06:23;811.10;;;745.13;;
51949;SDS011;37974;53.218;6.640;2023-11-19T19:08:50;787.70;;;724.70;;
51949;SDS011;37974;53.218;6.640;2023-11-19T19:11:16;827.92;;;759.78;;
51949;SDS011;37974;53.218;6.640;2023-11-19T19:13:45;807.90;;;741.92;;
51949;SDS011;37974;53.218;6.640;2023-11-19T19:16:11;799.83;;;735.83;;
51949;SDS011;37974;53.218;6.640;2023-11-19T19:18:43;784.03;;;722.30;;
51949;SDS011;37974;53.218;6.640;2023-11-19T19:21:55;818.15;;;751.72;;
51949;SDS011;37974;53.218;6.640;2023-11-19T19:25:25;824.60;;;757.13;;
51949;SDS011;37974;53.218;6.640;2023-11-19T19:28:06;795.58;;;730.72;;
51949;SDS011;37974;53.218;6.640;2023-11-19T19:30:35;833.58;;;764.80;;
51949;SDS011;37974;53.218;6.640;2023-11-19T19:33:01;844.70;;;774.78;;
51949;SDS011;37974;53.218;6.640;2023-11-19T19:35:27;830.80;;;763.30;;
51949;SDS011;37974;53.218;6.640;2023-11-19T19:37:56;824.92;;;756.90;;
51949;SDS011;37974;53.218;6.640;2023-11-19T19:40:23;840.05;;;771.63;;
51949;SDS011;37974;53.218;6.640;2023-11-19T19:42:50;844.35;;;774.78;;
51949;SDS011;37974;53.218;6.640;2023-11-19T19:45:19;862.08;;;790.53;;
51949;SDS011;37974;53.218;6.640;2023-11-19T19:48:07;847.78;;;778.95;;
51949;SDS011;37974;53.218;6.640;2023-11-19T19:50:33;832.58;;;765.63;;
51949;SDS011;37974;53.218;6.640;2023-11-19T19:52:59;832.25;;;764.88;;
51949;SDS011;37974;53.218;6.640;2023-11-19T19:55:25;826.08;;;759.67;;
51949;SDS011;37974;53.218;6.640;2023-11-19T19:57:51;840.53;;;772.38;;
51949;SDS011;37974;53.218;6.640;2023-11-19T20:00:17;813.03;;;747.22;;
51949;SDS011;37974;53.218;6.640;2023-11-19T20:02:43;797.63;;;734.03;;
51949;SDS011;37974;53.218;6.640;2023-11-19T20:05:09;831.08;;;763.55;;
51949;SDS011;37974;53.218;6.640;2023-11-19T20:07:37;832.05;;;764.78;;
51949;SDS011;37974;53.218;6.640;2023-11-19T20:10:08;827.28;;;760.65;;
51949;SDS011;37974;53.218;6.640;2023-11-19T20:12:39;807.85;;;744.42;;
51949;SDS011;37974;53.218;6.640;2023-11-19T20:15:06;813.38;;;749.20;;
51949;SDS011;37974;53.218;6.640;2023-11-19T20:17:33;797.85;;;734.97;;
51949;SDS011;37974;53.218;6.640;2023-11-19T20:19:59;803.05;;;738.55;;
51949;SDS011;37974;53.218;6.640;2023-11-19T20:22:26;820.80;;;755.60;;
51949;SDS011;37974;53.218;6.640;2023-11-19T20:24:52;787.28;;;725.13;;
51949;SDS011;37974;53.218;6.640;2023-11-19T20:27:21;790.45;;;728.65;;
51949;SDS011;37974;53.218;6.640;2023-11-19T20:29:47;791.33;;;729.38;;
51949;SDS011;37974;53.218;6.640;2023-11-19T20:32:13;792.92;;;730.50;;
51949;SDS011;37974;53.218;6.640;2023-11-19T20:34:44;792.47;;;730.22;;
51949;SDS011;37974;53.218;6.640;2023-11-19T20:37:51;784.65;;;723.15;;
51949;SDS011;37974;53.218;6.640;2023-11-19T20:40:20;808.90;;;744.58;;
51949;SDS011;37974;53.218;6.640;2023-11-19T20:43:21;798.72;;;736.05;;
51949;SDS011;37974;53.218;6.640;2023-11-19T20:47:55;785.83;;;724.95;;
51949;SDS011;37974;53.218;6.640;2023-11-19T20:50:21;780.70;;;720.17;;
51949;SDS011;37974;53.218;6.640;2023-11-19T20:53:42;801.78;;;739.28;;
51949;SDS011;37974;53.218;6.640;2023-11-19T20:56:13;806.47;;;743.00;;
51949;SDS011;37974;53.218;6.640;2023-11-19T20:59:14;803.60;;;739.85;;
51949;SDS011;37974;53.218;6.640;2023-11-19T21:02:24;783.92;;;722.38;;
51949;SDS011;37974;53.218;6.640;2023-11-19T21:08:37;794.22;;;732.10;;
51949;SDS011;37974;53.218;6.640;2023-11-19T21:11:37;773.97;;;713.67;;
51949;SDS011;37974;53.218;6.640;2023-11-19T21:15:04;789.40;;;727.22;;
51949;SDS011;37974;53.218;6.640;2023-11-19T21:21:32;780.60;;;720.58;;
51949;SDS011;37974;53.218;6.640;2023-11-19T21:25:10;786.78;;;725.22;;
51949;SDS011;37974;53.218;6.640;2023-11-19T21:28:07;765.78;;;706.03;;
51949;SDS011;37974;53.218;6.640;2023-11-19T21:34:42;770.28;;;710.50;;
51949;SDS011;37974;53.218;6.640;2023-11-19T21:37:56;793.95;;;732.90;;
51949;SDS011;37974;53.218;6.640;2023-11-19T21:41:18;789.42;;;727.97;;
51949;SDS011;37974;53.218;6.640;2023-11-19T22:41:55;792.10;;;730.53;;
51949;SDS011;37974;53.218;6.640;2023-11-19T22:45:17;800.53;;;738.55;;
51949;SDS011;37974;53.218;6.640;2023-11-19T22:55:39;815.10;;;751.35;;
51949;SDS011;37974;53.218;6.640;2023-11-19T23:25:43;791.70;;;730.30;;
51949;SDS011;37974;53.218;6.640;2023-11-19T23:36:03;802.17;;;739.85;;
51949;SDS011;37974;53.218;6.640;2023-11-19T23:39:09;771.67;;;711.83;;
51949;SDS011;37974;53.218;6.640;2023-11-19T23:44:42;800.33;;;737.85;;
51949;SDS011;37974;53.218;6.640;2023-11-19T23:47:33;774.22;;;714.45;;
51949;SDS011;37974;53.218;6.640;2023-11-19T23:50:09;811.13;;;747.58;;
51949;SDS011;37974;53.218;6.640;2023-11-19T23:53:50;768.45;;;709.75;;
51949;SDS011;37974;53.218;6.640;2023-11-19T23:56:58;804.83;;;742.97;;
